Time;durP1;ratioP1;P1;durP2;ratioP2;P2;SDS_P1;SDS_P2;PMS_P1;PMS_P2;Temp;Humidity;BMP_temperature;BMP_pressure;BME280_temperature;BME280_humidity;BME280_pressure;Samples;Min_cycle;Max_cycle;Signal;HPM_P1;HPM_P2
2022/01/29 00:00:55;;;;;;;4.15;1.58;;;;;;;;;;4996329;28;20034;-88
2022/01/29 00:03:22;;;;;;;4.43;1.85;;;;;;;;;;4996509;28;20514;-87
2022/01/29 00:05:48;;;;;;;5.93;2.40;;;;;;;;;;4994767;28;20014;-89
2022/01/29 00:08:14;;;;;;;8.60;3.70;;;;;;;;;;4995906;28;20328;-88
2022/01/29 00:10:43;;;;;;;7.65;3.50;;;;;;;;;;4998526;28;20022;-88
2022/01/29 00:13:09;;;;;;;5.70;2.65;;;;;;;;;;4993282;28;20411;-89
2022/01/29 00:15:35;;;;;;;4.03;1.60;;;;;;;;;;4994099;28;20048;-89
2022/01/29 00:18:01;;;;;;;5.10;1.80;;;;;;;;;;4993818;28;20077;-87
2022/01/29 00:20:27;;;;;;;5.93;2.40;;;;;;;;;;4994282;28;20494;-87
2022/01/29 00:22:54;;;;;;;2.97;1.65;;;;;;;;;;4997864;28;20057;-88
2022/01/29 00:25:20;;;;;;;4.65;2.30;;;;;;;;;;4998467;28;20027;-88
2022/01/29 00:27:46;;;;;;;7.97;2.85;;;;;;;;;;4999927;28;20038;-89
2022/01/29 00:30:17;;;;;;;5.13;2.28;;;;;;;;;;4998658;28;20031;-88
2022/01/29 00:32:43;;;;;;;7.20;2.67;;;;;;;;;;4996386;28;20041;-86
2022/01/29 00:35:09;;;;;;;6.40;2.70;;;;;;;;;;4997077;28;20062;-86
2022/01/29 00:37:35;;;;;;;5.80;2.40;;;;;;;;;;5019703;28;20026;-88
2022/01/29 00:40:01;;;;;;;3.55;1.90;;;;;;;;;;4997483;28;20475;-87
2022/01/29 00:42:27;;;;;;;6.60;3.00;;;;;;;;;;4999833;28;20097;-87
2022/01/29 00:44:53;;;;;;;6.50;2.35;;;;;;;;;;4998330;28;20026;-86
2022/01/29 00:47:19;;;;;;;4.47;2.08;;;;;;;;;;5000367;28;20373;-86
2022/01/29 00:49:46;;;;;;;3.80;1.75;;;;;;;;;;5033955;28;20034;-89
2022/01/29 00:52:12;;;;;;;2.40;1.13;;;;;;;;;;4994824;28;20096;-87
2022/01/29 00:54:38;;;;;;;5.55;2.20;;;;;;;;;;4997534;28;20045;-88
2022/01/29 00:57:05;;;;;;;5.53;2.58;;;;;;;;;;4998551;28;20030;-87
2022/01/29 00:59:32;;;;;;;6.75;2.55;;;;;;;;;;5011780;28;20069;-88
2022/01/29 01:01:58;;;;;;;3.45;1.70;;;;;;;;;;5014431;28;20042;-87
2022/01/29 01:04:24;;;;;;;2.85;1.50;;;;;;;;;;5013654;28;20034;-86
2022/01/29 01:06:50;;;;;;;6.28;2.08;;;;;;;;;;4996405;28;20038;-86
2022/01/29 01:09:16;;;;;;;4.03;1.70;;;;;;;;;;4995833;28;20018;-87
2022/01/29 01:11:42;;;;;;;2.80;1.10;;;;;;;;;;4989772;28;20055;-86
2022/01/29 01:14:08;;;;;;;1.60;0.80;;;;;;;;;;4994733;28;20027;-86
2022/01/29 01:16:34;;;;;;;1.52;0.90;;;;;;;;;;5015685;28;20019;-85
2022/01/29 01:19:01;;;;;;;4.20;1.90;;;;;;;;;;4992858;28;20479;-87
2022/01/29 01:21:27;;;;;;;3.85;1.52;;;;;;;;;;4995151;28;20038;-86
2022/01/29 01:23:53;;;;;;;3.97;1.58;;;;;;;;;;4992322;28;20022;-87
2022/01/29 01:26:19;;;;;;;2.67;1.30;;;;;;;;;;4992825;28;20065;-86
2022/01/29 01:28:45;;;;;;;3.50;1.40;;;;;;;;;;5016090;28;20027;-87
2022/01/29 01:31:11;;;;;;;1.77;1.10;;;;;;;;;;4993165;28;20362;-86
2022/01/29 01:33:37;;;;;;;5.40;1.60;;;;;;;;;;4991642;28;20041;-87
2022/01/29 01:36:06;;;;;;;2.67;1.33;;;;;;;;;;4991959;28;20116;-89
2022/01/29 01:38:40;;;;;;;2.25;1.23;;;;;;;;;;4991578;28;20049;-86
2022/01/29 01:41:10;;;;;;;4.53;1.50;;;;;;;;;;4993589;28;20092;-86
2022/01/29 01:43:36;;;;;;;3.65;1.25;;;;;;;;;;4995841;28;20058;-87
2022/01/29 01:46:02;;;;;;;2.03;1.20;;;;;;;;;;4992094;28;20026;-87
2022/01/29 01:48:28;;;;;;;2.40;1.10;;;;;;;;;;4990902;28;20030;-88
2022/01/29 01:50:55;;;;;;;2.30;1.00;;;;;;;;;;4992520;28;20037;-87
2022/01/29 01:53:21;;;;;;;3.92;1.52;;;;;;;;;;4992025;28;20031;-87
2022/01/29 01:55:50;;;;;;;3.53;1.50;;;;;;;;;;5014227;28;20014;-86
2022/01/29 01:58:16;;;;;;;2.78;0.80;;;;;;;;;;4990009;28;20522;-86
2022/01/29 02:00:42;;;;;;;1.77;0.80;;;;;;;;;;4991479;28;20034;-87
2022/01/29 02:03:08;;;;;;;2.67;1.38;;;;;;;;;;4990517;28;20066;-87
2022/01/29 02:05:34;;;;;;;3.13;1.60;;;;;;;;;;5005839;28;20062;-87
2022/01/29 02:08:02;;;;;;;3.20;1.48;;;;;;;;;;4993868;28;20038;-87
2022/01/29 02:10:28;;;;;;;2.53;1.40;;;;;;;;;;5013555;28;20032;-87
2022/01/29 02:13:01;;;;;;;2.55;1.33;;;;;;;;;;4992603;28;20146;-87
2022/01/29 02:15:28;;;;;;;2.42;1.05;;;;;;;;;;4990167;28;20022;-87
2022/01/29 02:17:54;;;;;;;2.40;1.13;;;;;;;;;;4990301;28;20121;-87
2022/01/29 02:20:21;;;;;;;3.40;1.10;;;;;;;;;;4991356;28;20027;-87
2022/01/29 02:22:47;;;;;;;3.08;1.30;;;;;;;;;;5013252;28;20038;-87
2022/01/29 02:25:29;;;;;;;1.38;0.75;;;;;;;;;;4994714;28;20030;-86
2022/01/29 02:27:55;;;;;;;2.05;0.80;;;;;;;;;;4992196;28;20434;-87
2022/01/29 02:30:21;;;;;;;2.05;0.82;;;;;;;;;;4992612;28;20030;-85
2022/01/29 02:32:47;;;;;;;2.10;1.15;;;;;;;;;;4989836;28;20032;-86
2022/01/29 02:35:13;;;;;;;2.47;1.20;;;;;;;;;;4991916;28;20104;-87
2022/01/29 02:37:39;;;;;;;4.10;1.35;;;;;;;;;;5014597;28;20487;-87
2022/01/29 02:40:06;;;;;;;1.90;1.10;;;;;;;;;;4991849;28;20124;-88
2022/01/29 02:42:32;;;;;;;3.08;1.30;;;;;;;;;;4991733;28;20031;-89
2022/01/29 02:44:58;;;;;;;1.63;1.00;;;;;;;;;;4993367;28;20023;-87
2022/01/29 02:47:30;;;;;;;1.55;1.00;;;;;;;;;;4990088;28;20439;-87
2022/01/29 02:49:56;;;;;;;1.70;0.95;;;;;;;;;;5009290;28;20030;-87
2022/01/29 02:52:22;;;;;;;0.93;0.57;;;;;;;;;;4985071;28;20022;-89
2022/01/29 02:54:48;;;;;;;1.85;0.63;;;;;;;;;;4990780;28;20038;-88
2022/01/29 02:57:14;;;;;;;1.50;0.80;;;;;;;;;;4992663;28;20030;-87
2022/01/29 02:59:40;;;;;;;1.40;0.75;;;;;;;;;;4987924;28;20038;-87
2022/01/29 03:02:06;;;;;;;1.90;0.90;;;;;;;;;;4992137;28;20042;-88
2022/01/29 03:04:33;;;;;;;1.92;1.13;;;;;;;;;;5013784;28;20033;-89
2022/01/29 03:06:59;;;;;;;1.25;0.93;;;;;;;;;;4993901;28;20042;-87
2022/01/29 03:09:24;;;;;;;1.25;0.80;;;;;;;;;;5009491;28;20026;-87
2022/01/29 03:11:50;;;;;;;1.55;0.70;;;;;;;;;;4993454;28;20133;-87
2022/01/29 03:14:16;;;;;;;3.80;0.88;;;;;;;;;;5008242;28;20033;-86
2022/01/29 03:16:42;;;;;;;1.13;0.73;;;;;;;;;;4992805;28;20030;-88
2022/01/29 03:19:08;;;;;;;1.92;0.70;;;;;;;;;;4986190;28;20127;-88
2022/01/29 03:21:34;;;;;;;1.80;0.90;;;;;;;;;;4984862;28;20096;-87
2022/01/29 03:24:00;;;;;;;2.05;0.90;;;;;;;;;;4982358;28;20022;-88
2022/01/29 03:26:26;;;;;;;1.90;1.00;;;;;;;;;;4978477;28;20097;-87
2022/01/29 03:28:52;;;;;;;1.10;0.70;;;;;;;;;;4994577;28;20026;-88
2022/01/29 03:31:20;;;;;;;2.10;0.90;;;;;;;;;;4991043;28;20038;-87
2022/01/29 03:33:46;;;;;;;1.13;0.67;;;;;;;;;;4993325;28;20030;-85
2022/01/29 03:36:12;;;;;;;3.15;1.30;;;;;;;;;;5011294;28;20275;-88
2022/01/29 03:38:40;;;;;;;2.03;1.00;;;;;;;;;;4989557;28;20069;-88
2022/01/29 03:41:07;;;;;;;0.73;0.50;;;;;;;;;;4991316;28;20030;-87
2022/01/29 03:43:41;;;;;;;1.13;0.70;;;;;;;;;;4992367;28;20022;-87
2022/01/29 03:46:06;;;;;;;1.42;0.77;;;;;;;;;;4990767;28;20487;-87
2022/01/29 03:48:32;;;;;;;2.30;1.02;;;;;;;;;;4987945;28;20031;-87
2022/01/29 03:50:58;;;;;;;1.75;1.00;;;;;;;;;;4989951;28;20495;-87
2022/01/29 03:53:24;;;;;;;1.75;0.80;;;;;;;;;;4988965;28;20034;-88
2022/01/29 03:55:50;;;;;;;2.70;1.00;;;;;;;;;;5009110;28;20250;-87
2022/01/29 03:58:16;;;;;;;3.15;1.10;;;;;;;;;;4990785;28;20026;-88
2022/01/29 04:00:42;;;;;;;2.42;0.77;;;;;;;;;;4988430;28;20471;-87
2022/01/29 04:03:08;;;;;;;2.55;0.88;;;;;;;;;;4988798;28;20038;-87
2022/01/29 04:05:35;;;;;;;1.67;1.00;;;;;;;;;;4990474;28;20033;-87
2022/01/29 04:08:01;;;;;;;3.10;0.95;;;;;;;;;;4991346;28;20030;-86
2022/01/29 04:10:28;;;;;;;2.58;1.38;;;;;;;;;;5011862;28;20534;-87
2022/01/29 04:12:55;;;;;;;2.22;1.10;;;;;;;;;;4989236;28;20093;-88
2022/01/29 04:15:21;;;;;;;1.13;0.70;;;;;;;;;;4992819;28;20054;-87
2022/01/29 04:17:47;;;;;;;2.15;1.10;;;;;;;;;;4993800;28;20460;-87
2022/01/29 04:20:13;;;;;;;1.67;1.00;;;;;;;;;;4993949;28;20475;-87
2022/01/29 04:22:39;;;;;;;2.25;1.10;;;;;;;;;;5019411;28;20152;-87
2022/01/29 04:25:06;;;;;;;1.48;0.63;;;;;;;;;;4989861;28;20483;-87
2022/01/29 04:27:37;;;;;;;4.43;0.75;;;;;;;;;;4988847;28;20041;-86
2022/01/29 04:30:09;;;;;;;2.25;1.00;;;;;;;;;;4989754;28;20052;-87
2022/01/29 04:32:58;;;;;;;2.88;1.30;;;;;;;;;;4987886;28;20514;-87
2022/01/29 04:35:21;;;;;;;5.20;1.20;;;;;;;;;;4992090;28;20037;-87
2022/01/29 04:37:49;;;;;;;1.58;1.00;;;;;;;;;;5013003;28;20471;-87
2022/01/29 04:40:15;;;;;;;2.00;1.00;;;;;;;;;;4990329;28;20030;-88
2022/01/29 04:42:41;;;;;;;3.50;0.85;;;;;;;;;;4991411;28;20067;-87
2022/01/29 04:45:08;;;;;;;0.95;0.60;;;;;;;;;;4989795;28;20022;-89
2022/01/29 04:47:34;;;;;;;1.88;0.93;;;;;;;;;;4992608;28;20541;-87
2022/01/29 04:50:00;;;;;;;2.85;1.20;;;;;;;;;;4995140;28;20391;-87
2022/01/29 04:52:26;;;;;;;2.97;1.10;;;;;;;;;;5015097;28;20026;-89
2022/01/29 04:54:52;;;;;;;1.92;1.08;;;;;;;;;;4994785;28;20042;-88
2022/01/29 04:57:18;;;;;;;2.60;1.10;;;;;;;;;;4986615;28;20031;-87
2022/01/29 04:59:43;;;;;;;2.55;1.05;;;;;;;;;;4992524;28;20042;-87
2022/01/29 05:02:09;;;;;;;2.20;1.05;;;;;;;;;;4994389;28;20129;-87
2022/01/29 05:04:35;;;;;;;2.47;1.10;;;;;;;;;;5014107;28;20037;-89
2022/01/29 05:07:02;;;;;;;2.42;1.00;;;;;;;;;;4992599;28;20112;-89
2022/01/29 05:09:28;;;;;;;1.83;0.90;;;;;;;;;;4993712;28;20022;-88
2022/01/29 05:11:55;;;;;;;1.80;0.80;;;;;;;;;;4991885;28;20062;-88
2022/01/29 05:14:35;;;;;;;1.95;0.73;;;;;;;;;;4993804;28;20105;-88
2022/01/29 05:27:53;;;;;;;2.38;0.90;;;;;;;;;;4995491;28;20053;-88
2022/01/29 05:30:19;;;;;;;0.98;0.80;;;;;;;;;;4991876;28;20022;-89
2022/01/29 05:32:45;;;;;;;1.50;0.70;;;;;;;;;;4990132;28;20037;-88
2022/01/29 05:35:11;;;;;;;2.03;0.82;;;;;;;;;;5022938;28;20046;-88
2022/01/29 05:37:37;;;;;;;0.88;0.70;;;;;;;;;;5026088;28;20034;-88
2022/01/29 05:40:03;;;;;;;1.98;0.80;;;;;;;;;;4993428;28;20038;-88
2022/01/29 05:42:29;;;;;;;1.85;0.80;;;;;;;;;;4991419;28;20057;-88
2022/01/29 05:44:55;;;;;;;1.15;0.65;;;;;;;;;;4991110;28;20031;-89
2022/01/29 05:47:21;;;;;;;0.80;0.60;;;;;;;;;;4991845;28;20365;-88
2022/01/29 05:49:47;;;;;;;2.45;0.70;;;;;;;;;;5014881;28;20033;-88
2022/01/29 05:52:13;;;;;;;1.80;0.60;;;;;;;;;;4990544;28;20088;-88
2022/01/29 05:54:39;;;;;;;2.80;0.65;;;;;;;;;;4992170;28;20037;-87
2022/01/29 05:57:05;;;;;;;0.82;0.35;;;;;;;;;;4995009;28;20080;-87
2022/01/29 05:59:35;;;;;;;1.63;0.73;;;;;;;;;;4994945;28;20037;-86
2022/01/29 06:02:01;;;;;;;2.00;1.20;;;;;;;;;;4994675;28;20041;-87
2022/01/29 06:04:26;;;;;;;1.60;0.93;;;;;;;;;;4992046;28;20492;-87
2022/01/29 06:06:52;;;;;;;2.03;0.90;;;;;;;;;;5011222;28;20045;-87
2022/01/29 06:09:18;;;;;;;1.38;0.90;;;;;;;;;;4994203;28;20057;-88
2022/01/29 06:11:44;;;;;;;1.42;0.90;;;;;;;;;;4994853;28;20171;-88
2022/01/29 06:14:12;;;;;;;1.92;0.90;;;;;;;;;;5010264;28;20026;-87
2022/01/29 06:16:38;;;;;;;1.15;0.77;;;;;;;;;;5014674;28;20045;-87
2022/01/29 06:19:04;;;;;;;2.50;1.10;;;;;;;;;;4994957;28;20093;-89
2022/01/29 06:21:30;;;;;;;2.47;1.08;;;;;;;;;;4991097;28;20034;-88
2022/01/29 06:23:58;;;;;;;2.75;0.77;;;;;;;;;;4990378;28;20109;-87
2022/01/29 06:26:24;;;;;;;1.08;0.63;;;;;;;;;;4990301;28;20026;-87
2022/01/29 06:28:50;;;;;;;1.48;0.70;;;;;;;;;;4990479;28;20396;-86
2022/01/29 06:31:16;;;;;;;2.45;0.80;;;;;;;;;;4992767;28;20033;-87
2022/01/29 06:33:42;;;;;;;0.70;0.47;;;;;;;;;;4990560;28;20034;-86
2022/01/29 06:36:08;;;;;;;2.08;1.02;;;;;;;;;;4990503;28;20053;-85
2022/01/29 06:38:34;;;;;;;1.88;1.05;;;;;;;;;;4988967;28;20546;-85
2022/01/29 06:41:00;;;;;;;1.45;0.80;;;;;;;;;;4994596;28;20018;-86
2022/01/29 06:43:28;;;;;;;1.15;0.75;;;;;;;;;;5009078;28;20300;-87
2022/01/29 06:45:54;;;;;;;2.40;0.70;;;;;;;;;;4990091;28;20052;-86
2022/01/29 06:48:20;;;;;;;1.40;0.68;;;;;;;;;;4990099;28;20069;-86
2022/01/29 06:50:46;;;;;;;2.25;0.85;;;;;;;;;;4989226;28;20034;-86
2022/01/29 06:53:13;;;;;;;2.83;0.98;;;;;;;;;;4990087;28;20047;-87
2022/01/29 06:55:39;;;;;;;1.95;0.80;;;;;;;;;;5012476;28;20089;-88
2022/01/29 06:58:05;;;;;;;1.13;0.73;;;;;;;;;;4995802;28;20029;-88
2022/01/29 07:00:31;;;;;;;2.72;0.80;;;;;;;;;;5014779;28;20444;-87
2022/01/29 07:02:57;;;;;;;0.57;0.52;;;;;;;;;;4992441;28;20116;-87
2022/01/29 07:05:23;;;;;;;1.30;0.60;;;;;;;;;;5011916;28;20046;-87
2022/01/29 07:07:49;;;;;;;1.02;0.65;;;;;;;;;;5034182;28;20030;-86
2022/01/29 07:10:16;;;;;;;2.70;1.20;;;;;;;;;;5000588;28;20026;-86
2022/01/29 07:12:42;;;;;;;2.05;0.90;;;;;;;;;;4990899;28;20057;-89
2022/01/29 07:15:10;;;;;;;4.65;1.00;;;;;;;;;;4992127;28;20091;-87
2022/01/29 07:17:36;;;;;;;2.90;1.27;;;;;;;;;;4992177;28;20030;-85
2022/01/29 07:20:03;;;;;;;2.88;1.00;;;;;;;;;;5022549;28;20388;-85
2022/01/29 07:22:29;;;;;;;1.80;1.10;;;;;;;;;;5009811;28;20049;-85
2022/01/29 07:24:55;;;;;;;1.52;0.60;;;;;;;;;;4994424;28;20046;-86
2022/01/29 07:27:21;;;;;;;2.90;1.10;;;;;;;;;;4994186;28;20034;-85
2022/01/29 07:29:47;;;;;;;2.90;1.25;;;;;;;;;;4993807;28;20368;-85
2022/01/29 07:32:13;;;;;;;4.03;1.80;;;;;;;;;;4991485;28;20019;-84
2022/01/29 07:34:39;;;;;;;4.07;1.60;;;;;;;;;;4993275;28;20494;-84
2022/01/29 07:37:05;;;;;;;2.95;1.40;;;;;;;;;;4988396;28;20030;-84
2022/01/29 07:39:32;;;;;;;3.58;1.30;;;;;;;;;;4988667;28;20602;-83
2022/01/29 07:41:58;;;;;;;1.70;0.80;;;;;;;;;;5000205;28;20117;-85
2022/01/29 07:44:24;;;;;;;2.90;1.08;;;;;;;;;;4991503;28;20026;-84
2022/01/29 07:46:50;;;;;;;1.60;1.10;;;;;;;;;;4978663;28;20030;-84
2022/01/29 07:49:16;;;;;;;2.17;1.25;;;;;;;;;;4987297;28;20029;-84
2022/01/29 07:51:42;;;;;;;1.98;1.15;;;;;;;;;;4980202;28;20026;-84
2022/01/29 07:54:08;;;;;;;7.22;1.48;;;;;;;;;;4989060;28;20053;-83
2022/01/29 07:56:34;;;;;;;2.22;1.23;;;;;;;;;;4988684;28;20118;-82
2022/01/29 07:59:00;;;;;;;2.00;1.25;;;;;;;;;;4991685;28;20034;-83
2022/01/29 08:01:27;;;;;;;3.28;1.35;;;;;;;;;;5013889;28;20034;-85
2022/01/29 08:03:53;;;;;;;2.65;1.35;;;;;;;;;;4990868;28;20399;-85
2022/01/29 08:06:21;;;;;;;4.80;1.23;;;;;;;;;;4989813;28;20082;-84
2022/01/29 08:08:47;;;;;;;3.70;1.45;;;;;;;;;;4986132;28;20487;-84
2022/01/29 08:11:15;;;;;;;3.40;1.73;;;;;;;;;;4987864;28;20038;-87
2022/01/29 08:13:43;;;;;;;3.58;1.42;;;;;;;;;;4992356;28;20045;-86
2022/01/29 08:16:09;;;;;;;4.75;1.90;;;;;;;;;;5003706;28;20033;-87
2022/01/29 08:18:35;;;;;;;4.68;2.05;;;;;;;;;;4987323;28;20037;-86
2022/01/29 08:21:01;;;;;;;8.15;1.92;;;;;;;;;;4990311;28;20395;-87
2022/01/29 08:23:27;;;;;;;8.27;2.22;;;;;;;;;;4992251;28;20026;-87
2022/01/29 08:25:53;;;;;;;5.30;2.53;;;;;;;;;;4995473;28;20029;-86
2022/01/29 08:28:19;;;;;;;3.38;2.10;;;;;;;;;;4990826;28;20621;-86
2022/01/29 08:30:46;;;;;;;6.13;2.53;;;;;;;;;;4991875;28;20041;-86
2022/01/29 08:33:17;;;;;;;3.35;1.88;;;;;;;;;;4991085;28;20169;-87
2022/01/29 08:35:43;;;;;;;2.92;1.70;;;;;;;;;;4990849;28;20055;-87
2022/01/29 08:38:09;;;;;;;6.72;3.50;;;;;;;;;;4995688;28;20113;-86
2022/01/29 08:40:35;;;;;;;5.25;3.00;;;;;;;;;;4998036;28;20066;-86
2022/01/29 08:43:01;;;;;;;6.07;2.72;;;;;;;;;;4994913;28;20070;-86
2022/01/29 08:45:27;;;;;;;4.55;2.20;;;;;;;;;;4993128;28;20062;-86
2022/01/29 08:47:54;;;;;;;3.72;1.90;;;;;;;;;;4993050;28;20076;-85
2022/01/29 08:50:20;;;;;;;4.05;2.40;;;;;;;;;;4992773;28;20379;-87
2022/01/29 08:52:46;;;;;;;6.38;3.10;;;;;;;;;;5022566;28;20033;-87
2022/01/29 08:55:12;;;;;;;5.43;2.50;;;;;;;;;;4993001;28;20077;-87
2022/01/29 08:57:39;;;;;;;5.22;2.67;;;;;;;;;;4992851;28;20038;-87
2022/01/29 09:00:06;;;;;;;7.10;2.42;;;;;;;;;;4994651;28;20023;-87
2022/01/29 09:02:32;;;;;;;4.10;1.83;;;;;;;;;;4991466;28;20705;-87
2022/01/29 09:04:58;;;;;;;5.25;2.35;;;;;;;;;;4995045;28;20030;-86
2022/01/29 09:07:24;;;;;;;4.68;2.10;;;;;;;;;;4992353;28;20022;-88
2022/01/29 09:09:51;;;;;;;3.28;1.83;;;;;;;;;;4990659;28;20011;-87
2022/01/29 09:12:17;;;;;;;3.38;1.70;;;;;;;;;;4989975;28;20046;-87
2022/01/29 09:14:43;;;;;;;3.40;1.52;;;;;;;;;;4990349;28;20097;-87
2022/01/29 09:17:10;;;;;;;2.63;1.00;;;;;;;;;;4992819;28;20125;-87
2022/01/29 09:19:35;;;;;;;2.42;1.40;;;;;;;;;;4995140;28;20023;-86
2022/01/29 09:22:01;;;;;;;2.17;1.20;;;;;;;;;;4992102;28;20093;-87
2022/01/29 09:24:27;;;;;;;2.25;1.20;;;;;;;;;;4990465;28;20018;-88
2022/01/29 09:26:53;;;;;;;4.35;1.13;;;;;;;;;;4990610;28;20470;-86
2022/01/29 09:29:19;;;;;;;2.03;1.08;;;;;;;;;;4991318;28;20030;-86
2022/01/29 09:31:45;;;;;;;1.13;0.73;;;;;;;;;;5012377;28;20030;-88
2022/01/29 09:34:11;;;;;;;2.20;0.73;;;;;;;;;;4992707;28;20026;-88
2022/01/29 09:36:37;;;;;;;1.15;0.75;;;;;;;;;;4990823;28;20428;-88
2022/01/29 09:39:03;;;;;;;2.17;1.08;;;;;;;;;;4990820;28;20116;-88
2022/01/29 09:41:29;;;;;;;3.30;1.05;;;;;;;;;;4990925;28;20411;-88
2022/01/29 09:43:56;;;;;;;8.80;1.30;;;;;;;;;;4994144;28;20022;-88
2022/01/29 09:46:31;;;;;;;2.88;1.20;;;;;;;;;;5007816;28;20554;-88
2022/01/29 09:48:57;;;;;;;1.10;0.90;;;;;;;;;;4993290;28;20041;-89
2022/01/29 09:51:23;;;;;;;3.47;0.75;;;;;;;;;;4993090;28;20034;-87
2022/01/29 09:53:49;;;;;;;3.55;1.30;;;;;;;;;;4987033;28;20034;-84
2022/01/29 09:56:16;;;;;;;1.77;1.10;;;;;;;;;;4974296;28;20480;-85
2022/01/29 09:58:42;;;;;;;2.15;1.10;;;;;;;;;;4992023;28;20424;-85
2022/01/29 10:01:09;;;;;;;1.50;0.80;;;;;;;;;;4989957;28;20057;-84
2022/01/29 10:03:35;;;;;;;2.63;1.05;;;;;;;;;;4990015;28;20037;-87
2022/01/29 10:06:01;;;;;;;1.90;1.02;;;;;;;;;;4991391;28;20029;-87
2022/01/29 10:08:28;;;;;;;1.83;0.88;;;;;;;;;;4989999;28;20357;-85
2022/01/29 10:10:58;;;;;;;3.05;1.15;;;;;;;;;;4992330;28;20173;-87
2022/01/29 10:13:33;;;;;;;2.22;0.98;;;;;;;;;;5019326;28;20566;-89
2022/01/29 10:16:05;;;;;;;2.67;1.17;;;;;;;;;;4990649;28;20061;-87
2022/01/29 10:18:32;;;;;;;4.00;1.30;;;;;;;;;;4987420;28;20026;-87
2022/01/29 10:21:08;;;;;;;2.35;1.35;;;;;;;;;;4990126;28;20034;-87
2022/01/29 10:23:35;;;;;;;3.88;2.00;;;;;;;;;;4989171;28;20479;-87
2022/01/29 10:26:02;;;;;;;2.70;1.38;;;;;;;;;;5020736;28;20234;-87
2022/01/29 10:28:28;;;;;;;1.88;1.00;;;;;;;;;;5011227;28;20027;-87
2022/01/29 10:30:55;;;;;;;1.73;0.95;;;;;;;;;;4991034;28;20053;-87
2022/01/29 10:33:24;;;;;;;1.50;0.73;;;;;;;;;;4990951;28;20258;-87
2022/01/29 10:35:51;;;;;;;1.15;0.80;;;;;;;;;;4990878;28;20019;-87
2022/01/29 10:38:24;;;;;;;0.70;0.60;;;;;;;;;;4991933;28;20105;-87
2022/01/29 10:41:16;;;;;;;0.70;0.50;;;;;;;;;;5012911;28;20043;-87
2022/01/29 10:44:09;;;;;;;1.05;0.40;;;;;;;;;;4983994;28;20065;-87
2022/01/29 10:46:35;;;;;;;1.25;0.50;;;;;;;;;;5008985;28;20034;-86
2022/01/29 10:49:01;;;;;;;0.73;0.43;;;;;;;;;;4991062;28;20033;-86
2022/01/29 10:51:27;;;;;;;1.65;0.80;;;;;;;;;;4989683;28;20108;-86
2022/01/29 10:53:53;;;;;;;1.05;0.70;;;;;;;;;;4989270;28;20040;-87
2022/01/29 10:56:22;;;;;;;1.20;0.90;;;;;;;;;;4991446;28;20019;-86
2022/01/29 10:58:50;;;;;;;1.40;1.00;;;;;;;;;;4999325;28;20030;-87
2022/01/29 11:01:24;;;;;;;1.35;0.98;;;;;;;;;;4988159;28;20109;-87
2022/01/29 11:03:54;;;;;;;1.38;0.90;;;;;;;;;;4992516;28;20045;-86
2022/01/29 11:06:27;;;;;;;2.58;0.90;;;;;;;;;;4992278;28;20121;-86
2022/01/29 11:08:53;;;;;;;1.58;0.82;;;;;;;;;;4989918;28;20022;-87
2022/01/29 11:11:19;;;;;;;2.35;0.90;;;;;;;;;;4989729;28;20035;-87
2022/01/29 11:13:46;;;;;;;1.50;0.90;;;;;;;;;;4989124;28;20034;-87
2022/01/29 11:16:13;;;;;;;2.00;0.80;;;;;;;;;;4990335;28;20034;-86
2022/01/29 11:18:39;;;;;;;0.68;0.50;;;;;;;;;;4988324;28;20097;-87
2022/01/29 11:21:05;;;;;;;1.63;0.93;;;;;;;;;;4988758;28;20470;-87
2022/01/29 11:23:32;;;;;;;1.95;0.90;;;;;;;;;;4988542;28;20050;-87
2022/01/29 11:25:59;;;;;;;1.67;0.90;;;;;;;;;;5017203;28;20026;-87
2022/01/29 11:28:27;;;;;;;1.85;1.17;;;;;;;;;;5010001;28;20023;-87
2022/01/29 11:31:14;;;;;;;2.72;1.30;;;;;;;;;;4990173;28;20475;-86
2022/01/29 11:33:58;;;;;;;1.85;1.20;;;;;;;;;;4989591;28;20038;-87
2022/01/29 11:36:43;;;;;;;1.90;1.00;;;;;;;;;;4988437;28;20030;-87
2022/01/29 11:39:19;;;;;;;1.25;0.75;;;;;;;;;;4988343;28;20030;-87
2022/01/29 11:41:45;;;;;;;1.85;0.93;;;;;;;;;;4991117;28;20039;-86
2022/01/29 11:44:26;;;;;;;2.33;1.33;;;;;;;;;;4990436;28;20114;-87
2022/01/29 11:46:52;;;;;;;2.40;1.20;;;;;;;;;;4988676;28;20027;-87
2022/01/29 11:49:19;;;;;;;2.83;1.20;;;;;;;;;;4991110;28;20102;-87
2022/01/29 11:51:49;;;;;;;2.10;1.30;;;;;;;;;;4988311;28;20109;-86
2022/01/29 11:54:18;;;;;;;2.53;1.35;;;;;;;;;;4990918;28;20020;-86
2022/01/29 11:56:45;;;;;;;3.17;1.35;;;;;;;;;;4994501;28;20085;-86
2022/01/29 11:59:20;;;;;;;4.13;1.70;;;;;;;;;;4997075;28;20022;-87
2022/01/29 12:01:53;;;;;;;3.78;1.58;;;;;;;;;;5018810;28;20034;-86
2022/01/29 12:04:20;;;;;;;4.65;1.83;;;;;;;;;;5002491;28;20076;-86
2022/01/29 12:07:13;;;;;;;3.80;1.77;;;;;;;;;;4991058;28;20026;-86
2022/01/29 12:09:49;;;;;;;6.32;1.73;;;;;;;;;;4995910;28;20022;-86
2022/01/29 12:12:18;;;;;;;6.28;2.10;;;;;;;;;;4989335;28;20061;-88
2022/01/29 12:14:45;;;;;;;3.92;1.50;;;;;;;;;;4994657;28;20038;-88
2022/01/29 12:17:11;;;;;;;5.03;1.80;;;;;;;;;;4996299;28;20054;-86
2022/01/29 12:19:39;;;;;;;4.72;1.70;;;;;;;;;;5018389;28;20045;-86
2022/01/29 12:22:25;;;;;;;5.32;2.10;;;;;;;;;;4994163;28;20034;-88
2022/01/29 12:24:59;;;;;;;3.30;1.67;;;;;;;;;;4996108;28;20030;-86
2022/01/29 12:27:38;;;;;;;2.90;1.52;;;;;;;;;;4995166;28;20370;-86
2022/01/29 12:30:05;;;;;;;2.30;1.25;;;;;;;;;;4995782;28;20467;-86
2022/01/29 12:32:31;;;;;;;4.25;1.50;;;;;;;;;;4994764;28;20118;-87
2022/01/29 12:34:59;;;;;;;2.63;1.45;;;;;;;;;;4997669;28;20049;-85
2022/01/29 12:37:25;;;;;;;3.63;1.70;;;;;;;;;;4996033;28;20022;-87
2022/01/29 12:40:05;;;;;;;4.43;2.10;;;;;;;;;;4994221;28;20117;-86
2022/01/29 12:42:42;;;;;;;5.63;1.77;;;;;;;;;;4995782;28;20127;-86
2022/01/29 12:45:09;;;;;;;3.20;1.55;;;;;;;;;;4994446;28;20030;-86
2022/01/29 12:47:36;;;;;;;5.40;1.90;;;;;;;;;;4993936;28;20118;-86
2022/01/29 12:50:02;;;;;;;5.25;2.10;;;;;;;;;;4996901;28;20023;-87
2022/01/29 12:52:29;;;;;;;5.88;2.10;;;;;;;;;;5025936;28;20033;-86
2022/01/29 12:54:57;;;;;;;6.13;2.40;;;;;;;;;;4995826;28;20242;-86
2022/01/29 12:57:24;;;;;;;4.95;1.95;;;;;;;;;;4994334;28;20022;-87
2022/01/29 12:59:50;;;;;;;6.30;2.55;;;;;;;;;;4993307;28;20026;-88
2022/01/29 13:02:16;;;;;;;8.15;2.75;;;;;;;;;;4994909;28;20415;-86
2022/01/29 13:04:46;;;;;;;6.53;2.33;;;;;;;;;;5016934;28;20018;-86
2022/01/29 13:07:12;;;;;;;5.82;2.20;;;;;;;;;;4991943;28;20121;-85
2022/01/29 13:09:38;;;;;;;5.82;2.58;;;;;;;;;;4989790;28;20101;-86
2022/01/29 13:12:05;;;;;;;5.20;2.20;;;;;;;;;;4991343;28;20050;-86
2022/01/29 13:14:32;;;;;;;5.75;2.30;;;;;;;;;;4993484;28;20038;-86
2022/01/29 13:16:59;;;;;;;4.82;2.30;;;;;;;;;;4993659;28;20411;-86
2022/01/29 13:19:26;;;;;;;5.47;2.05;;;;;;;;;;5009235;28;20019;-87
2022/01/29 13:21:57;;;;;;;6.63;2.60;;;;;;;;;;4989117;28;20073;-87
2022/01/29 13:24:29;;;;;;;6.03;2.08;;;;;;;;;;4992182;28;20411;-86
2022/01/29 13:27:01;;;;;;;4.00;1.80;;;;;;;;;;4990743;28;20057;-87
2022/01/29 13:29:36;;;;;;;6.53;2.45;;;;;;;;;;4975791;28;20435;-86
2022/01/29 13:32:02;;;;;;;4.10;2.03;;;;;;;;;;4992965;28;20495;-87
2022/01/29 13:34:29;;;;;;;6.28;2.45;;;;;;;;;;5022493;28;20033;-86
2022/01/29 13:36:55;;;;;;;5.93;2.40;;;;;;;;;;4990668;28;20034;-86
2022/01/29 13:39:22;;;;;;;5.55;2.25;;;;;;;;;;4991057;28;20205;-87
2022/01/29 13:42:04;;;;;;;5.82;2.25;;;;;;;;;;4993070;28;20487;-87
2022/01/29 13:44:30;;;;;;;5.75;2.55;;;;;;;;;;4975269;28;20157;-86
2022/01/29 13:47:09;;;;;;;5.95;2.47;;;;;;;;;;4993970;28;20376;-87
2022/01/29 13:49:37;;;;;;;5.80;2.28;;;;;;;;;;4994605;28;20026;-86
2022/01/29 13:52:15;;;;;;;4.80;1.98;;;;;;;;;;4989828;28;20121;-86
2022/01/29 13:54:41;;;;;;;4.75;1.98;;;;;;;;;;4990944;28;20066;-86
2022/01/29 13:57:08;;;;;;;5.07;2.58;;;;;;;;;;4990256;28;20042;-86
2022/01/29 13:59:37;;;;;;;5.35;2.20;;;;;;;;;;4992337;28;20026;-86
2022/01/29 14:02:04;;;;;;;7.68;2.50;;;;;;;;;;4992527;28;20045;-87
2022/01/29 14:04:33;;;;;;;5.27;2.57;;;;;;;;;;4988081;28;20030;-87
2022/01/29 14:07:00;;;;;;;5.13;2.22;;;;;;;;;;4993264;28;20046;-86
2022/01/29 14:09:30;;;;;;;4.68;2.40;;;;;;;;;;4989811;28;20427;-86
2022/01/29 14:12:03;;;;;;;7.10;2.53;;;;;;;;;;4991979;28;20038;-86
2022/01/29 14:14:39;;;;;;;8.85;2.92;;;;;;;;;;5007697;28;20080;-86
2022/01/29 14:17:07;;;;;;;5.95;2.25;;;;;;;;;;4993548;28;20387;-86
2022/01/29 14:19:34;;;;;;;5.35;2.38;;;;;;;;;;5011565;28;20026;-86
2022/01/29 14:22:00;;;;;;;6.45;2.67;;;;;;;;;;4989503;28;20050;-86
2022/01/29 14:24:27;;;;;;;7.97;3.20;;;;;;;;;;4990421;28;20057;-87
2022/01/29 14:26:54;;;;;;;5.95;2.65;;;;;;;;;;4990675;28;20022;-87
2022/01/29 14:29:20;;;;;;;6.28;2.55;;;;;;;;;;4990903;28;20034;-86
2022/01/29 14:31:46;;;;;;;5.15;2.33;;;;;;;;;;5012692;28;20041;-87
2022/01/29 14:34:12;;;;;;;7.68;3.33;;;;;;;;;;4990778;28;20030;-87
2022/01/29 14:36:38;;;;;;;6.93;3.30;;;;;;;;;;4991878;28;20026;-87
2022/01/29 14:39:05;;;;;;;5.75;2.67;;;;;;;;;;4989417;28;20033;-87
2022/01/29 14:41:32;;;;;;;7.18;3.00;;;;;;;;;;4990229;28;20080;-87
2022/01/29 14:43:58;;;;;;;8.10;4.47;;;;;;;;;;4992055;28;20049;-87
2022/01/29 14:46:24;;;;;;;8.32;3.25;;;;;;;;;;4990627;28;20029;-88
2022/01/29 14:48:52;;;;;;;7.20;3.05;;;;;;;;;;4991327;28;20030;-87
2022/01/29 14:51:26;;;;;;;8.32;3.85;;;;;;;;;;4991034;28;20018;-87
2022/01/29 14:53:52;;;;;;;11.52;4.53;;;;;;;;;;4990282;28;20034;-87
2022/01/29 14:56:18;;;;;;;8.13;3.83;;;;;;;;;;4990143;28;20054;-86